Time;durP1;ratioP1;P1;durP2;ratioP2;P2;SDS_P1;SDS_P2;PMS_P1;PMS_P2;Temp;Humidity;BMP_temperature;BMP_pressure;BME280_temperature;BME280_humidity;BME280_pressure;Samples;Min_cycle;Max_cycle;Signal;HPM_P1;HPM_P2
2021/04/23 00:02:26;;;;;;;5.15;2.85;;;13.90;99.90;;;;;;5055220;28;20060;-62
2021/04/23 00:04:53;;;;;;;3.55;2.75;;;14.00;99.90;;;;;;5055416;28;20028;-62
2021/04/23 00:07:18;;;;;;;2.92;2.50;;;14.00;99.90;;;;;;5066771;28;20029;-62
2021/04/23 00:09:44;;;;;;;3.40;2.83;;;14.00;99.90;;;;;;5066509;28;20541;-62
2021/04/23 00:12:15;;;;;;;3.25;2.80;;;14.00;99.90;;;;;;5057740;28;20384;-61
2021/04/23 00:14:47;;;;;;;4.25;3.15;;;13.90;99.90;;;;;;5046912;28;20025;-61
2021/04/23 00:17:15;;;;;;;4.78;2.85;;;13.90;99.90;;;;;;5046546;28;20052;-62
2021/04/23 00:19:44;;;;;;;3.45;2.53;;;13.90;99.90;;;;;;5047988;28;20025;-62
2021/04/23 00:22:10;;;;;;;4.40;2.95;;;13.90;99.90;;;;;;5057464;28;20059;-62
2021/04/23 00:24:35;;;;;;;3.65;2.67;;;13.80;99.90;;;;;;5045501;28;20060;-62
2021/04/23 00:27:04;;;;;;;3.38;2.97;;;13.70;99.90;;;;;;5046422;28;20043;-62
2021/04/23 00:29:30;;;;;;;4.75;3.17;;;13.60;99.90;;;;;;5045769;28;20021;-61
2021/04/23 00:34:42;;;;;;;3.03;2.70;;;13.50;99.90;;;;;;5066496;28;20039;-61
2021/04/23 00:37:08;;;;;;;4.15;3.13;;;13.40;99.90;;;;;;5065630;28;20458;-61
2021/04/23 00:39:35;;;;;;;4.35;3.20;;;13.30;99.90;;;;;;5065829;28;20032;-61
2021/04/23 00:42:03;;;;;;;3.95;3.03;;;13.20;99.90;;;;;;5057303;28;20028;-61
2021/04/23 00:44:30;;;;;;;3.45;2.95;;;13.30;99.90;;;;;;5045705;28;20032;-61
2021/04/23 00:46:56;;;;;;;5.40;3.40;;;13.30;99.90;;;;;;5045985;28;20100;-62
2021/04/23 00:49:22;;;;;;;3.45;2.70;;;13.30;99.90;;;;;;5045394;28;20033;-62
2021/04/23 00:52:00;;;;;;;2.90;2.60;;;13.30;99.90;;;;;;5049369;28;20035;-61
2021/04/23 00:54:28;;;;;;;3.53;2.95;;;13.40;99.90;;;;;;5065637;28;20013;-62
2021/04/23 00:56:55;;;;;;;4.88;3.63;;;13.40;99.90;;;;;;5065644;28;20032;-62
2021/04/23 00:59:21;;;;;;;5.00;3.75;;;13.40;99.90;;;;;;5054224;28;20029;-62
2021/04/23 01:01:56;;;;;;;3.60;3.00;;;13.40;99.90;;;;;;5050966;28;20028;-62
2021/04/23 01:04:22;;;;;;;5.32;4.00;;;13.00;99.90;;;;;;5065050;28;20021;-62
2021/04/23 01:06:49;;;;;;;3.65;3.30;;;12.80;99.90;;;;;;5065240;28;20047;-62
2021/04/23 01:09:20;;;;;;;5.00;3.67;;;12.80;99.90;;;;;;5065638;28;20036;-62
2021/04/23 01:11:47;;;;;;;3.97;3.58;;;12.70;99.90;;;;;;5059192;28;20060;-62
2021/04/23 01:14:14;;;;;;;4.80;3.67;;;12.80;99.90;;;;;;5046196;28;20056;-62
2021/04/23 01:16:40;;;;;;;3.53;3.22;;;12.70;99.90;;;;;;5045037;28;20513;-61
2021/04/23 01:19:09;;;;;;;5.60;3.60;;;12.50;99.90;;;;;;5045520;28;20506;-62
2021/04/23 01:21:36;;;;;;;3.95;3.08;;;12.50;99.90;;;;;;5048317;28;20040;-62
2021/04/23 01:24:06;;;;;;;5.63;3.47;;;12.40;99.90;;;;;;5064095;28;20469;-62
2021/04/23 01:26:35;;;;;;;5.53;3.92;;;12.30;99.90;;;;;;5061689;28;20061;-62
2021/04/23 01:29:05;;;;;;;4.13;3.25;;;12.40;99.90;;;;;;5045109;28;20450;-61
2021/04/23 01:31:34;;;;;;;4.60;3.50;;;12.20;99.90;;;;;;5047359;28;20033;-61
2021/04/23 01:34:09;;;;;;;3.92;3.20;;;12.30;99.90;;;;;;5065934;28;20572;-61
2021/04/23 01:36:37;;;;;;;3.88;3.15;;;12.20;99.90;;;;;;5069014;28;20039;-61
2021/04/23 01:39:08;;;;;;;4.15;3.58;;;12.30;99.90;;;;;;5069484;28;20465;-61
2021/04/23 01:41:34;;;;;;;4.05;3.33;;;12.40;99.90;;;;;;5068102;28;20028;-62
2021/04/23 01:44:00;;;;;;;3.70;2.95;;;12.40;99.90;;;;;;5069265;28;20035;-62
2021/04/23 01:46:26;;;;;;;4.57;3.42;;;12.30;99.90;;;;;;5068885;28;20054;-62
2021/04/23 01:48:52;;;;;;;3.65;2.95;;;12.10;99.90;;;;;;5069134;28;20056;-62
2021/04/23 01:51:18;;;;;;;4.95;3.50;;;12.00;99.90;;;;;;5052586;28;20451;-62
2021/04/23 01:53:44;;;;;;;3.47;2.90;;;11.90;99.90;;;;;;5069660;28;20452;-62
2021/04/23 01:56:10;;;;;;;3.80;3.15;;;11.90;99.90;;;;;;5068739;28;20033;-61
2021/04/23 01:58:37;;;;;;;3.78;3.08;;;12.00;99.90;;;;;;5068756;28;20052;-62
2021/04/23 02:01:07;;;;;;;4.03;3.30;;;12.00;99.90;;;;;;5068995;28;20025;-62
2021/04/23 02:03:33;;;;;;;4.55;3.90;;;11.80;99.90;;;;;;5049940;28;20043;-62
2021/04/23 02:05:59;;;;;;;4.63;3.60;;;11.90;99.90;;;;;;5048846;28;20025;-62
2021/04/23 02:08:26;;;;;;;5.22;3.78;;;12.00;99.90;;;;;;5048128;28;20029;-62
2021/04/23 02:11:06;;;;;;;4.50;3.65;;;12.00;99.90;;;;;;5048395;28;20033;-62
2021/04/23 02:13:35;;;;;;;3.90;3.05;;;12.10;99.90;;;;;;5064140;28;20067;-62
2021/04/23 02:16:00;;;;;;;4.47;3.20;;;12.10;99.90;;;;;;5068587;28;20448;-62
2021/04/23 02:18:26;;;;;;;4.65;3.50;;;12.20;99.90;;;;;;5066750;28;20108;-62
2021/04/23 02:20:53;;;;;;;4.78;3.58;;;12.20;99.90;;;;;;5068235;28;20485;-62
2021/04/23 02:23:20;;;;;;;4.72;3.63;;;12.30;99.90;;;;;;5066260;28;20103;-62
2021/04/23 02:25:49;;;;;;;4.85;4.07;;;12.20;99.90;;;;;;5069084;28;20036;-61
2021/04/23 02:28:16;;;;;;;4.65;3.97;;;12.10;99.90;;;;;;5068880;28;20051;-61
2021/04/23 02:30:57;;;;;;;5.57;4.25;;;12.00;99.90;;;;;;5059925;28;20025;-61
2021/04/23 02:33:23;;;;;;;4.50;4.05;;;11.90;99.90;;;;;;5062207;28;20650;-62
2021/04/23 02:35:53;;;;;;;5.13;3.90;;;11.80;99.90;;;;;;5066830;28;20032;-62
2021/04/23 02:38:19;;;;;;;5.55;4.05;;;11.80;99.90;;;;;;5068513;28;20100;-61
2021/04/23 02:40:46;;;;;;;4.35;3.30;;;11.80;99.90;;;;;;5068793;28;20026;-61
2021/04/23 02:43:18;;;;;;;6.18;4.47;;;11.70;99.90;;;;;;5056747;28;20025;-62
2021/04/23 02:45:46;;;;;;;4.32;3.42;;;11.70;99.90;;;;;;5047650;28;20017;-61
2021/04/23 02:48:14;;;;;;;4.53;3.05;;;11.60;99.90;;;;;;5048296;28;20029;-62
2021/04/23 02:50:45;;;;;;;4.88;3.53;;;11.60;99.90;;;;;;5048023;28;20024;-62
2021/04/23 02:53:13;;;;;;;6.75;3.42;;;11.60;99.90;;;;;;5059223;28;20035;-62
2021/04/23 02:55:38;;;;;;;5.07;3.40;;;11.60;99.90;;;;;;5067819;28;20465;-62
2021/04/23 02:58:19;;;;;;;3.25;2.70;;;11.60;99.90;;;;;;5067939;28;20052;-62
2021/04/23 03:00:51;;;;;;;4.13;2.90;;;11.50;99.90;;;;;;5068512;28;20104;-62
2021/04/23 03:03:18;;;;;;;4.20;2.70;;;11.40;99.90;;;;;;5051559;28;20029;-62
2021/04/23 03:05:47;;;;;;;4.15;3.13;;;11.40;99.90;;;;;;5048257;28;20025;-61
2021/04/23 03:08:15;;;;;;;5.07;3.53;;;11.40;99.90;;;;;;5061180;28;20123;-62
2021/04/23 03:10:45;;;;;;;4.68;3.67;;;11.40;99.90;;;;;;5067352;28;20255;-62
2021/04/23 03:13:17;;;;;;;3.75;3.20;;;11.40;99.90;;;;;;5052148;28;20406;-62
2021/04/23 03:15:43;;;;;;;3.85;3.22;;;11.40;99.90;;;;;;5048167;28;20039;-62
2021/04/23 03:18:15;;;;;;;5.97;3.33;;;11.50;99.90;;;;;;5047470;28;20104;-62
2021/04/23 03:20:43;;;;;;;6.85;4.15;;;11.60;99.90;;;;;;5047210;28;20403;-62
2021/04/23 03:23:09;;;;;;;5.22;3.50;;;11.60;99.90;;;;;;5061737;28;20036;-62
2021/04/23 03:25:38;;;;;;;5.53;3.67;;;11.50;99.90;;;;;;5066506;28;20070;-62
2021/04/23 03:28:05;;;;;;;5.35;3.58;;;11.40;99.90;;;;;;5067242;28;20025;-62
2021/04/23 03:30:33;;;;;;;4.50;3.35;;;11.50;99.90;;;;;;5067188;28;20495;-62
2021/04/23 03:33:00;;;;;;;8.23;3.53;;;11.30;99.90;;;;;;5066006;28;20051;-62
2021/04/23 03:35:28;;;;;;;5.22;3.92;;;11.30;99.90;;;;;;5067003;28;20024;-61
2021/04/23 03:37:56;;;;;;;4.82;3.85;;;11.60;99.90;;;;;;5066999;28;20074;-61
2021/04/23 03:40:25;;;;;;;4.50;3.47;;;11.90;99.90;;;;;;5067026;28;20552;-62
2021/04/23 03:42:52;;;;;;;6.15;3.83;;;11.90;99.90;;;;;;5055095;28;20053;-62
2021/04/23 03:45:21;;;;;;;4.40;3.65;;;11.80;99.90;;;;;;5045545;28;20048;-62
2021/04/23 03:47:47;;;;;;;6.85;3.92;;;11.60;99.90;;;;;;5047360;28;20666;-62
2021/04/23 03:50:15;;;;;;;5.00;3.58;;;11.50;99.90;;;;;;5061319;28;20052;-62
2021/04/23 03:52:42;;;;;;;7.65;3.45;;;11.50;99.90;;;;;;5056023;28;20040;-62
2021/04/23 03:55:13;;;;;;;5.97;3.88;;;11.30;99.90;;;;;;5047191;28;20113;-62
2021/04/23 03:57:39;;;;;;;5.50;3.75;;;11.30;99.90;;;;;;5046188;28;20036;-62
2021/04/23 04:00:10;;;;;;;4.95;3.50;;;11.30;99.90;;;;;;5046858;28;20013;-62
2021/04/23 04:02:36;;;;;;;4.22;3.28;;;11.40;99.90;;;;;;5058221;28;20027;-62
2021/04/23 04:05:02;;;;;;;5.60;3.60;;;11.30;99.90;;;;;;5066806;28;20028;-62
2021/04/23 04:07:28;;;;;;;2.97;2.67;;;11.30;99.90;;;;;;5066010;28;20032;-62
2021/04/23 04:09:55;;;;;;;9.02;6.72;;;11.10;99.90;;;;;;5066020;28;20044;-62
2021/04/23 04:12:20;;;;;;;6.85;5.03;;;11.10;99.90;;;;;;5065253;28;20037;-62
2021/04/23 04:14:47;;;;;;;6.45;4.90;;;11.10;99.90;;;;;;5066943;28;20577;-62
2021/04/23 04:17:13;;;;;;;5.93;4.43;;;11.30;99.90;;;;;;5066642;28;20028;-62
2021/04/23 04:19:38;;;;;;;6.03;4.05;;;11.40;99.90;;;;;;5066296;28;20074;-62
2021/04/23 04:22:05;;;;;;;5.15;3.10;;;11.30;99.90;;;;;;5065366;28;20040;-62
2021/04/23 04:24:30;;;;;;;4.63;3.30;;;11.40;99.90;;;;;;5066351;28;20394;-62
2021/04/23 04:26:56;;;;;;;4.13;2.90;;;11.30;99.90;;;;;;5066034;28;20291;-62
2021/04/23 04:29:23;;;;;;;4.65;3.10;;;11.20;99.90;;;;;;5066022;28;20544;-62
2021/04/23 04:31:52;;;;;;;4.55;3.70;;;11.00;99.90;;;;;;5060561;28;20056;-62
2021/04/23 04:34:18;;;;;;;3.88;3.10;;;10.90;99.90;;;;;;5046151;28;20029;-62
2021/04/23 04:36:45;;;;;;;5.40;3.17;;;10.80;99.90;;;;;;5053436;28;20028;-62
2021/04/23 04:39:11;;;;;;;5.38;3.20;;;10.80;99.90;;;;;;5064713;28;20028;-61
2021/04/23 04:41:38;;;;;;;4.35;3.00;;;10.70;99.90;;;;;;5062293;28;20147;-62
2021/04/23 04:44:05;;;;;;;6.30;3.78;;;10.70;99.90;;;;;;5046137;28;20096;-62
2021/04/23 04:46:30;;;;;;;4.95;3.25;;;10.70;99.90;;;;;;5045550;28;20067;-62
2021/04/23 04:48:56;;;;;;;5.78;3.47;;;10.70;99.90;;;;;;5045759;28;20114;-62
2021/04/23 04:51:22;;;;;;;6.65;3.47;;;10.50;99.90;;;;;;5045753;28;20032;-62
2021/04/23 04:53:48;;;;;;;5.15;4.03;;;10.50;99.90;;;;;;5065782;28;20025;-62
2021/04/23 04:56:15;;;;;;;5.80;3.53;;;10.40;99.90;;;;;;5066329;28;20044;-62
2021/04/23 04:58:42;;;;;;;6.35;3.70;;;10.40;99.90;;;;;;5065398;28;20013;-61
2021/04/23 05:01:10;;;;;;;4.88;3.80;;;10.30;99.90;;;;;;5063225;28;20032;-62
2021/04/23 05:03:37;;;;;;;4.68;3.50;;;10.40;99.90;;;;;;5077160;28;20021;-62
2021/04/23 05:06:04;;;;;;;4.93;3.33;;;10.30;99.90;;;;;;5045689;28;20060;-62
2021/04/23 05:08:29;;;;;;;4.80;3.03;;;10.30;99.90;;;;;;5045252;28;20029;-62
2021/04/23 05:10:57;;;;;;;7.38;3.83;;;10.30;99.90;;;;;;5045348;28;20557;-62
2021/04/23 05:13:22;;;;;;;4.35;3.05;;;10.30;99.90;;;;;;5045461;28;20036;-62
2021/04/23 05:15:49;;;;;;;5.35;4.03;;;10.30;99.90;;;;;;5045304;28;20029;-62
2021/04/23 05:18:14;;;;;;;5.63;3.80;;;10.30;99.90;;;;;;5062527;28;20052;-62
2021/04/23 05:20:41;;;;;;;4.57;3.22;;;10.40;99.90;;;;;;5065039;28;20464;-62
2021/04/23 05:23:08;;;;;;;4.22;2.90;;;10.30;99.90;;;;;;5065930;28;20104;-62
2021/04/23 05:25:35;;;;;;;4.90;2.95;;;10.40;99.90;;;;;;5065407;28;20025;-62
2021/04/23 05:28:02;;;;;;;5.70;3.13;;;10.50;99.90;;;;;;5063473;28;20024;-61
2021/04/23 05:30:30;;;;;;;5.68;3.10;;;10.40;99.90;;;;;;5045035;28;20068;-62
2021/04/23 05:32:57;;;;;;;4.95;2.95;;;10.40;99.90;;;;;;5045105;28;20466;-61
2021/04/23 05:35:24;;;;;;;6.90;3.10;;;10.50;99.90;;;;;;5045173;28;20045;-62
2021/04/23 05:37:51;;;;;;;5.07;3.20;;;10.40;99.90;;;;;;5043325;28;20040;-62
2021/04/23 05:40:21;;;;;;;5.53;3.90;;;10.50;99.90;;;;;;5065503;28;20102;-62
2021/04/23 05:42:47;;;;;;;5.80;3.60;;;10.50;99.90;;;;;;5065400;28;20678;-62
2021/04/23 05:45:14;;;;;;;5.43;3.80;;;10.60;99.90;;;;;;5057919;28;20071;-62
2021/04/23 05:47:41;;;;;;;5.07;3.50;;;10.50;99.90;;;;;;5044973;28;20154;-62
2021/04/23 05:50:10;;;;;;;6.07;3.63;;;10.50;99.90;;;;;;5045309;28;20112;-62
2021/04/23 05:52:36;;;;;;;4.63;3.30;;;10.50;99.90;;;;;;5045079;28;20094;-62
2021/04/23 05:55:04;;;;;;;5.80;3.53;;;10.50;99.90;;;;;;5045848;28;20044;-62
2021/04/23 05:57:30;;;;;;;4.80;3.13;;;10.50;99.90;;;;;;5044774;28;20025;-62
2021/04/23 05:59:55;;;;;;;5.15;2.88;;;10.50;99.90;;;;;;5045179;28;20025;-62
2021/04/23 06:02:21;;;;;;;5.90;3.00;;;10.50;99.90;;;;;;5064158;28;20076;-62
2021/04/23 06:04:48;;;;;;;7.07;3.08;;;10.60;99.90;;;;;;5064243;28;20024;-62
2021/04/23 06:07:13;;;;;;;3.92;2.78;;;10.70;99.90;;;;;;5065821;28;20032;-62
2021/04/23 06:09:39;;;;;;;4.57;2.95;;;10.80;99.90;;;;;;5064400;28;20101;-62
2021/04/23 06:12:05;;;;;;;5.00;3.58;;;10.90;99.90;;;;;;5064762;28;20033;-62
2021/04/23 06:14:32;;;;;;;2.90;2.10;;;11.00;99.90;;;;;;5063427;28;20406;-62
2021/04/23 06:16:59;;;;;;;2.60;1.92;;;11.00;99.90;;;;;;5046080;28;20040;-62
2021/04/23 06:19:25;;;;;;;6.40;2.38;;;11.00;99.90;;;;;;5076804;28;20024;-62
2021/04/23 06:21:51;;;;;;;5.95;2.47;;;11.10;99.90;;;;;;5047371;28;20098;-62
2021/04/23 06:24:18;;;;;;;5.43;2.75;;;11.10;99.90;;;;;;5048735;28;20025;-62
2021/04/23 06:26:44;;;;;;;4.18;2.42;;;11.20;99.90;;;;;;5049716;28;20497;-62
2021/04/23 06:29:10;;;;;;;5.38;2.30;;;11.20;99.90;;;;;;5048570;28;20040;-62
2021/04/23 06:31:36;;;;;;;5.75;3.15;;;11.10;99.90;;;;;;5052760;28;20025;-61
2021/04/23 06:34:01;;;;;;;3.35;2.58;;;11.30;99.90;;;;;;5048348;28;20055;-62
2021/04/23 06:36:27;;;;;;;5.63;2.50;;;11.20;99.90;;;;;;5055702;28;20573;-62
2021/04/23 06:38:53;;;;;;;5.47;2.35;;;11.30;99.90;;;;;;5068681;28;20496;-61
2021/04/23 06:41:18;;;;;;;4.75;2.47;;;11.40;99.90;;;;;;5068265;28;20027;-62
2021/04/23 06:43:45;;;;;;;5.10;2.55;;;11.30;99.90;;;;;;5068562;28;20031;-62
2021/04/23 06:46:13;;;;;;;2.97;2.45;;;11.30;99.90;;;;;;5063029;28;20033;-62
2021/04/23 06:48:39;;;;;;;5.00;2.40;;;11.50;99.90;;;;;;5047875;28;20033;-62
2021/04/23 06:51:05;;;;;;;4.05;2.63;;;11.50;99.90;;;;;;5047998;28;20108;-62
2021/04/23 06:53:32;;;;;;;3.42;2.15;;;11.60;99.90;;;;;;5047521;28;20037;-62
2021/04/23 06:56:00;;;;;;;4.80;2.08;;;11.50;99.90;;;;;;5047524;28;20037;-62
2021/04/23 06:58:26;;;;;;;4.18;2.00;;;11.50;99.90;;;;;;5047659;28;20094;-61
2021/04/23 07:00:51;;;;;;;3.50;2.28;;;11.60;99.90;;;;;;5049575;28;20024;-61
2021/04/23 07:03:17;;;;;;;2.40;1.98;;;11.70;99.90;;;;;;5057011;28;20029;-62
2021/04/23 07:05:44;;;;;;;4.03;2.15;;;11.70;99.90;;;;;;5060994;28;20025;-62
2021/04/23 07:08:11;;;;;;;3.83;1.95;;;11.60;99.80;;;;;;5065225;28;20028;-61
2021/04/23 07:10:37;;;;;;;2.70;1.52;;;11.60;99.50;;;;;;5067488;28;20060;-61
2021/04/23 07:13:03;;;;;;;3.25;1.90;;;11.60;99.70;;;;;;5067782;28;20032;-62
2021/04/23 07:15:32;;;;;;;5.68;2.00;;;11.70;99.70;;;;;;5067110;28;20465;-62
2021/04/23 07:17:58;;;;;;;3.95;1.85;;;11.90;99.90;;;;;;5064268;28;20046;-61
2021/04/23 07:20:25;;;;;;;2.88;1.83;;;11.80;99.60;;;;;;5061576;28;20024;-62
2021/04/23 07:22:52;;;;;;;3.20;1.88;;;11.80;99.90;;;;;;5067696;28;20059;-61
2021/04/23 07:25:20;;;;;;;3.45;2.17;;;11.80;99.90;;;;;;5067217;28;20498;-62
2021/04/23 07:27:46;;;;;;;4.65;1.95;;;11.70;99.60;;;;;;5067995;28;20407;-62
2021/04/23 07:30:17;;;;;;;3.40;2.22;;;11.80;99.90;;;;;;5065200;28;20115;-61
2021/04/23 07:32:43;;;;;;;2.60;2.10;;;11.80;99.40;;;;;;5067210;28;20021;-61
2021/04/23 07:35:10;;;;;;;5.18;1.90;;;11.80;99.30;;;;;;5047499;28;20404;-62
2021/04/23 07:37:36;;;;;;;2.65;1.85;;;11.80;99.40;;;;;;5046738;28;20048;-62
2021/04/23 07:40:07;;;;;;;2.70;1.60;;;12.00;99.70;;;;;;5046969;28;20071;-61
2021/04/23 07:42:32;;;;;;;2.70;1.70;;;11.90;99.10;;;;;;5047185;28;20210;-61
2021/04/23 07:44:58;;;;;;;2.72;1.77;;;11.80;99.60;;;;;;5046943;28;20025;-61
2021/04/23 07:47:25;;;;;;;3.42;2.13;;;11.70;99.40;;;;;;5046597;28;20021;-62
2021/04/23 07:49:52;;;;;;;3.15;1.70;;;12.00;99.60;;;;;;5047733;28;20507;-62
2021/04/23 07:52:18;;;;;;;4.63;1.90;;;12.00;99.30;;;;;;5046929;28;20033;-62
2021/04/23 07:54:45;;;;;;;2.65;1.60;;;12.30;99.80;;;;;;5047697;28;20086;-63
2021/04/23 07:57:11;;;;;;;3.45;1.77;;;12.30;99.20;;;;;;5060184;28;20032;-62
2021/04/23 07:59:38;;;;;;;2.45;1.48;;;12.40;99.40;;;;;;5062705;28;20024;-62
2021/04/23 08:02:05;;;;;;;1.52;1.27;;;12.30;99.20;;;;;;5068081;28;20063;-61
2021/04/23 08:04:31;;;;;;;2.20;1.83;;;12.40;99.30;;;;;;5067521;28;20024;-62
2021/04/23 08:06:57;;;;;;;2.90;1.27;;;12.50;99.20;;;;;;5067808;28;20029;-61
2021/04/23 08:09:22;;;;;;;3.17;1.75;;;12.60;98.70;;;;;;5067032;28;20085;-60
2021/04/23 08:11:48;;;;;;;4.00;1.70;;;12.60;98.60;;;;;;5067509;28;20032;-62
2021/04/23 08:14:14;;;;;;;2.58;1.65;;;12.50;98.90;;;;;;5058654;28;20028;-61
2021/04/23 08:16:40;;;;;;;1.75;1.33;;;12.40;98.80;;;;;;5065816;28;20397;-62
2021/04/23 08:19:06;;;;;;;2.28;1.33;;;12.50;98.60;;;;;;5067914;28;20017;-61
2021/04/23 08:21:32;;;;;;;5.22;1.73;;;12.70;98.80;;;;;;5067236;28;20025;-61
2021/04/23 08:23:58;;;;;;;2.85;1.40;;;12.70;98.50;;;;;;5067658;28;20028;-61
2021/04/23 08:26:24;;;;;;;1.80;1.52;;;12.80;97.70;;;;;;5063801;28;20482;-61
2021/04/23 08:28:51;;;;;;;2.85;1.90;;;12.90;97.80;;;;;;5067162;28;20432;-61
2021/04/23 08:31:17;;;;;;;2.92;1.67;;;12.80;98.10;;;;;;5067544;28;20020;-63
2021/04/23 08:33:43;;;;;;;3.50;1.70;;;12.90;98.10;;;;;;5065526;28;20052;-62
2021/04/23 08:36:09;;;;;;;2.50;1.48;;;13.10;97.80;;;;;;5067389;28;20028;-61
2021/04/23 08:38:35;;;;;;;1.88;1.35;;;13.10;98.10;;;;;;5067046;28;20435;-60
2021/04/23 08:41:01;;;;;;;3.35;1.60;;;13.10;98.00;;;;;;5061679;28;20111;-61
2021/04/23 08:43:27;;;;;;;3.08;1.40;;;13.00;97.80;;;;;;5066023;28;20146;-61
2021/04/23 08:45:53;;;;;;;1.73;1.23;;;13.10;97.80;;;;;;5066795;28;20078;-61
2021/04/23 08:48:21;;;;;;;1.75;1.20;;;13.10;98.00;;;;;;5066988;28;20079;-61
2021/04/23 08:50:48;;;;;;;1.55;1.30;;;13.30;99.20;;;;;;5066904;28;20032;-60
2021/04/23 08:53:16;;;;;;;1.85;1.25;;;13.40;97.90;;;;;;5067706;28;20150;-60
2021/04/23 08:55:41;;;;;;;1.27;1.00;;;13.50;97.90;;;;;;5048820;28;20108;-61
2021/04/23 08:58:08;;;;;;;2.25;1.30;;;13.50;97.90;;;;;;5053933;28;20581;-62
2021/04/23 09:00:34;;;;;;;2.30;1.30;;;13.60;97.30;;;;;;5065501;28;20024;-62
2021/04/23 09:02:59;;;;;;;2.03;1.25;;;13.50;97.80;;;;;;5064631;28;20400;-60
2021/04/23 09:05:26;;;;;;;4.15;1.83;;;13.50;97.50;;;;;;5065521;28;20024;-61
2021/04/23 09:08:00;;;;;;;2.50;1.42;;;13.50;97.60;;;;;;5065665;28;20025;-62
2021/04/23 09:10:27;;;;;;;4.85;2.30;;;13.60;97.60;;;;;;5065167;28;20032;-60
2021/04/23 09:13:13;;;;;;;5.78;2.20;;;13.70;97.20;;;;;;5051029;28;20616;-62
2021/04/23 09:15:41;;;;;;;3.88;2.40;;;13.70;97.40;;;;;;5045390;28;20033;-61
2021/04/23 09:18:11;;;;;;;3.38;1.90;;;13.80;97.60;;;;;;5044190;28;20064;-60
2021/04/23 09:20:41;;;;;;;3.33;1.95;;;13.80;97.90;;;;;;5046258;28;20021;-61
2021/04/23 09:23:13;;;;;;;3.38;1.80;;;13.90;98.20;;;;;;5046558;28;20428;-60
2021/04/23 09:25:41;;;;;;;6.78;2.92;;;13.90;97.70;;;;;;5064678;28;20077;-61
2021/04/23 09:28:06;;;;;;;3.55;2.10;;;13.90;98.20;;;;;;5064407;28;20025;-60
2021/04/23 09:30:32;;;;;;;2.97;1.90;;;14.10;97.90;;;;;;5064475;28;20028;-61
2021/04/23 09:32:59;;;;;;;1.67;1.25;;;14.30;98.50;;;;;;5046484;28;20522;-60
2021/04/23 09:35:25;;;;;;;2.58;1.50;;;14.30;97.30;;;;;;5044564;28;20108;-61
2021/04/23 09:37:56;;;;;;;1.50;1.20;;;14.30;97.20;;;;;;5064303;28;20463;-62
2021/04/23 09:40:28;;;;;;;1.83;1.23;;;14.60;98.10;;;;;;5062261;28;20028;-62
2021/04/23 09:42:59;;;;;;;1.05;0.95;;;14.70;97.80;;;;;;5049372;28;20027;-61
2021/04/23 09:45:32;;;;;;;1.42;1.10;;;14.50;97.00;;;;;;5064577;28;20036;-62
2021/04/23 09:47:59;;;;;;;3.15;2.17;;;14.50;97.00;;;;;;5064551;28;20033;-61
2021/04/23 09:50:41;;;;;;;2.72;1.95;;;14.50;97.10;;;;;;5062568;28;20067;-62
2021/04/23 09:53:07;;;;;;;1.85;1.50;;;14.60;96.80;;;;;;5062804;28;20585;-62
2021/04/23 09:55:34;;;;;;;1.63;1.30;;;14.60;96.70;;;;;;5065920;28;20072;-62
2021/04/23 09:58:00;;;;;;;2.50;1.42;;;14.80;97.00;;;;;;5068188;28;20224;-62
2021/04/23 10:00:29;;;;;;;1.90;1.60;;;14.80;96.80;;;;;;5068269;28;20070;-62
2021/04/23 10:02:58;;;;;;;1.75;1.40;;;14.80;97.10;;;;;;5068320;28;20289;-62
2021/04/23 10:05:40;;;;;;;1.45;1.35;;;14.90;96.90;;;;;;5067519;28;20025;-62
2021/04/23 10:08:24;;;;;;;2.08;1.48;;;14.90;96.60;;;;;;5058696;28;20418;-63
2021/04/23 10:10:52;;;;;;;1.40;1.13;;;14.90;96.40;;;;;;5065132;28;20094;-62
2021/04/23 10:13:30;;;;;;;1.77;1.30;;;15.20;97.10;;;;;;5067701;28;20059;-62
2021/04/23 10:15:56;;;;;;;1.38;1.27;;;15.50;97.80;;;;;;5052836;28;20029;-61
2021/04/23 10:18:23;;;;;;;2.17;1.70;;;15.50;96.40;;;;;;5056360;28;20020;-62
2021/04/23 10:20:51;;;;;;;3.78;1.73;;;15.40;95.60;;;;;;5065593;28;20410;-62
2021/04/23 10:23:21;;;;;;;3.95;2.10;;;15.30;95.90;;;;;;5059200;28;20021;-61
2021/04/23 10:25:49;;;;;;;1.80;1.60;;;15.50;95.90;;;;;;5048806;28;20029;-62
2021/04/23 10:28:20;;;;;;;2.15;1.73;;;15.60;96.20;;;;;;5048630;28;20510;-61
2021/04/23 10:30:48;;;;;;;2.03;1.40;;;15.70;96.50;;;;;;5068463;28;20021;-62
2021/04/23 10:33:26;;;;;;;1.10;0.90;;;15.70;96.20;;;;;;5068096;28;20025;-60
2021/04/23 10:35:55;;;;;;;1.50;1.40;;;15.80;95.20;;;;;;5062962;28;20037;-64
2021/04/23 10:38:25;;;;;;;3.33;1.80;;;15.80;95.90;;;;;;5056113;28;20793;-61
2021/04/23 10:41:05;;;;;;;3.10;2.40;;;15.80;95.00;;;;;;5060623;28;20021;-61
2021/04/23 10:43:33;;;;;;;1.92;1.58;;;15.80;94.70;;;;;;5057673;28;20033;-61
2021/04/23 10:46:09;;;;;;;3.08;2.10;;;15.90;94.60;;;;;;5058159;28;20150;-62
2021/04/23 10:48:42;;;;;;;4.35;2.60;;;16.10;94.70;;;;;;5052924;28;20024;-62
2021/04/23 10:51:19;;;;;;;4.63;2.47;;;16.00;94.80;;;;;;5067575;28;20059;-60
2021/04/23 10:53:53;;;;;;;5.72;2.90;;;16.00;94.60;;;;;;5066651;28;20028;-62
2021/04/23 10:56:22;;;;;;;6.38;3.13;;;16.20;94.30;;;;;;5055903;28;20025;-61
2021/04/23 10:58:48;;;;;;;4.43;2.92;;;16.10;94.00;;;;;;5062075;28;20032;-62
2021/04/23 11:01:18;;;;;;;3.90;2.47;;;16.00;94.20;;;;;;5067069;28;20032;-61
2021/04/23 11:03:56;;;;;;;7.07;2.60;;;16.20;94.40;;;;;;5066182;28;20051;-61
2021/04/23 11:06:22;;;;;;;2.83;2.00;;;16.30;94.00;;;;;;5060592;28;20029;-61
2021/04/23 11:09:00;;;;;;;6.35;3.28;;;16.50;94.00;;;;;;5065622;28;20154;-62
2021/04/23 11:11:30;;;;;;;5.45;3.60;;;16.40;93.80;;;;;;5064156;28;20032;-61
2021/04/23 11:14:30;;;;;;;4.28;3.35;;;16.40;93.00;;;;;;5067060;28;20062;-64
2021/04/23 11:17:18;;;;;;;3.55;2.40;;;16.40;92.70;;;;;;5067107;28;20509;-61
2021/04/23 11:19:48;;;;;;;3.50;2.05;;;16.90;93.40;;;;;;5067234;28;20041;-62
2021/04/23 11:22:17;;;;;;;2.40;1.70;;;17.10;93.20;;;;;;5067548;28;20027;-62
2021/04/23 11:25:01;;;;;;;6.03;3.15;;;17.30;93.20;;;;;;5066753;28;20042;-61
2021/04/23 11:27:27;;;;;;;4.20;2.85;;;17.30;92.40;;;;;;5065558;28;20060;-62
2021/04/23 11:29:53;;;;;;;3.40;2.20;;;17.40;92.60;;;;;;5068682;28;20064;-63
2021/04/23 11:32:27;;;;;;;5.78;2.50;;;17.50;92.00;;;;;;5065462;28;20035;-61
2021/04/23 11:34:54;;;;;;;3.78;2.42;;;17.40;91.90;;;;;;5065744;28;20039;-62
2021/04/23 11:37:24;;;;;;;3.80;2.30;;;17.60;92.30;;;;;;5066544;28;20024;-63
2021/04/23 11:39:58;;;;;;;3.33;1.95;;;17.70;91.80;;;;;;5061932;28;20024;-63
2021/04/23 11:42:26;;;;;;;2.85;2.15;;;18.10;91.90;;;;;;5063197;28;20021;-62
2021/04/23 11:44:52;;;;;;;2.80;1.95;;;18.20;91.20;;;;;;5065635;28;20029;-63
2021/04/23 11:47:25;;;;;;;2.40;2.00;;;18.30;91.20;;;;;;5067310;28;20025;-63
2021/04/23 11:50:09;;;;;;;2.15;1.75;;;18.40;90.60;;;;;;5060540;28;20031;-62
2021/04/23 11:52:36;;;;;;;1.85;1.50;;;18.70;90.60;;;;;;5067554;28;20020;-61
2021/04/23 11:55:07;;;;;;;5.00;2.75;;;18.90;90.70;;;;;;5067695;28;20054;-63
2021/04/23 11:57:32;;;;;;;2.90;2.20;;;18.90;90.90;;;;;;5066794;28;20441;-63
2021/04/23 12:00:13;;;;;;;2.58;2.08;;;19.20;89.40;;;;;;5067494;28;20032;-63
2021/04/23 12:02:41;;;;;;;3.25;2.50;;;19.40;89.00;;;;;;5068206;28;20055;-62
2021/04/23 12:05:18;;;;;;;3.63;2.25;;;19.30;90.00;;;;;;5066789;28;20784;-64
2021/04/23 12:07:45;;;;;;;2.97;2.47;;;19.40;88.20;;;;;;5066432;28;20222;-64
2021/04/23 12:10:12;;;;;;;3.58;2.25;;;19.70;88.80;;;;;;5067027;28;20714;-63
2021/04/23 12:12:38;;;;;;;3.83;1.88;;;20.00;88.90;;;;;;5064716;28;20059;-63
2021/04/23 12:15:06;;;;;;;2.67;2.00;;;20.00;88.50;;;;;;5063132;28;20063;-63
2021/04/23 12:17:43;;;;;;;2.15;1.95;;;20.10;88.30;;;;;;5065262;28;20025;-64
2021/04/23 12:20:24;;;;;;;3.70;2.30;;;20.30;87.40;;;;;;5064414;28;20029;-65
2021/04/23 12:22:51;;;;;;;3.13;2.30;;;20.30;86.30;;;;;;5065917;28;20376;-64
2021/04/23 12:25:21;;;;;;;3.00;1.83;;;20.30;86.00;;;;;;5065647;28;20055;-64
2021/04/23 12:27:47;;;;;;;2.72;1.95;;;20.50;86.80;;;;;;5064696;28;20557;-64
2021/04/23 12:30:31;;;;;;;2.22;1.55;;;20.80;86.60;;;;;;5066092;28;20571;-63
2021/04/23 12:32:58;;;;;;;3.95;2.92;;;20.80;85.60;;;;;;5064693;28;20020;-63
2021/04/23 12:35:45;;;;;;;3.00;2.20;;;20.80;85.30;;;;;;5064894;28;20024;-63
2021/04/23 12:38:12;;;;;;;6.90;3.30;;;20.50;84.60;;;;;;5065502;28;20047;-64
2021/04/23 12:40:44;;;;;;;8.80;4.60;;;20.40;84.80;;;;;;5065399;28;20021;-62
2021/04/23 12:43:22;;;;;;;5.55;3.20;;;20.50;84.80;;;;;;5065478;28;20028;-64
2021/04/23 12:45:52;;;;;;;4.68;2.95;;;20.60;83.40;;;;;;5065463;28;20024;-64
2021/04/23 12:48:20;;;;;;;4.47;2.55;;;20.80;84.50;;;;;;5065075;28;20028;-64
2021/04/23 12:50:47;;;;;;;4.13;2.72;;;20.90;82.80;;;;;;5065886;28;20082;-64
2021/04/23 12:53:15;;;;;;;5.20;2.95;;;20.80;82.40;;;;;;5065730;28;20503;-64
2021/04/23 12:55:42;;;;;;;3.88;1.80;;;21.10;82.40;;;;;;5063982;28;20399;-64
2021/04/23 12:58:10;;;;;;;3.40;1.95;;;21.50;81.80;;;;;;5064415;28;20441;-64